Time;durP1;ratioP1;P1;durP2;ratioP2;P2;SDS_P1;SDS_P2;PMS_P1;PMS_P2;Temp;Humidity;BMP_temperature;BMP_pressure;BME280_temperature;BME280_humidity;BME280_pressure;Samples;Min_cycle;Max_cycle;Signal;HPM_P1;HPM_P2
2023/08/19 00:01:12;;;;;;;;;;;24.40;91.10;;;;;;5073028;28;19913;-72
2023/08/19 00:03:37;;;;;;;;;;;24.40;91.10;;;;;;5074389;28;19908;-72
2023/08/19 00:06:07;;;;;;;;;;;24.40;91.20;;;;;;5074245;28;19920;-72
2023/08/19 00:08:33;;;;;;;;;;;24.40;91.20;;;;;;5072672;28;19960;-72
2023/08/19 00:10:59;;;;;;;;;;;24.40;91.20;;;;;;5074205;28;19912;-72
2023/08/19 00:13:24;;;;;;;;;;;24.40;91.20;;;;;;5074278;28;19995;-72
2023/08/19 00:15:49;;;;;;;;;;;24.40;91.20;;;;;;5074227;28;19919;-71
2023/08/19 00:18:16;;;;;;;;;;;24.40;91.20;;;;;;5073874;28;20398;-71
2023/08/19 00:20:42;;;;;;;;;;;24.40;91.20;;;;;;5074157;28;19909;-71
2023/08/19 00:23:07;;;;;;;;;;;24.40;91.20;;;;;;5074433;28;19909;-71
2023/08/19 00:25:35;;;;;;;;;;;24.40;91.20;;;;;;5073959;28;20410;-72
2023/08/19 00:28:03;;;;;;;;;;;24.40;91.20;;;;;;5074051;28;19909;-71
2023/08/19 00:30:29;;;;;;;;;;;24.40;91.20;;;;;;5074046;28;19908;-71
2023/08/19 00:32:55;;;;;;;;;;;24.40;91.20;;;;;;5073982;28;20011;-71
2023/08/19 00:35:20;;;;;;;;;;;24.40;91.20;;;;;;5074009;28;19948;-72
2023/08/19 00:37:46;;;;;;;;;;;24.40;91.20;;;;;;5073966;28;19909;-72
2023/08/19 00:40:13;;;;;;;;;;;24.40;91.20;;;;;;5073943;28;19954;-71
2023/08/19 00:42:39;;;;;;;;;;;24.40;91.20;;;;;;5073528;28;19915;-72
2023/08/19 00:45:05;;;;;;;;;;;24.40;91.20;;;;;;5073517;28;19920;-72
2023/08/19 00:47:30;;;;;;;;;;;24.40;91.20;;;;;;5073649;28;20311;-71
2023/08/19 00:49:56;;;;;;;;;;;24.40;91.20;;;;;;5073630;28;19908;-72
2023/08/19 00:52:21;;;;;;;;;;;24.40;91.20;;;;;;5073488;28;19909;-71
2023/08/19 00:54:47;;;;;;;;;;;24.40;91.20;;;;;;5073527;28;19909;-71
2023/08/19 00:57:12;;;;;;;;;;;24.40;91.20;;;;;;5073486;28;19913;-70
2023/08/19 00:59:38;;;;;;;;;;;24.40;91.20;;;;;;5073821;28;20371;-71
2023/08/19 01:02:03;;;;;;;;;;;24.40;91.20;;;;;;5073463;28;19909;-70
2023/08/19 01:04:29;;;;;;;;;;;24.40;91.20;;;;;;5073257;28;20348;-70
2023/08/19 01:06:57;;;;;;;;;;;24.40;91.20;;;;;;5073920;28;19912;-71
2023/08/19 01:09:26;;;;;;;;;;;24.40;91.20;;;;;;5073617;28;20413;-71
2023/08/19 01:11:59;;;;;;;;;;;24.40;91.20;;;;;;5073587;28;20330;-71
2023/08/19 01:14:28;;;;;;;;;;;24.40;91.20;;;;;;5073730;28;19908;-72
2023/08/19 01:16:54;;;;;;;;;;;24.40;91.20;;;;;;5073587;28;20025;-72
2023/08/19 01:19:23;;;;;;;;;;;24.40;91.20;;;;;;5073235;28;20318;-71
2023/08/19 01:21:52;;;;;;;;;;;24.40;91.20;;;;;;5076770;28;19951;-71
2023/08/19 01:24:20;;;;;;;;;;;24.40;91.20;;;;;;5075974;28;19913;-72
2023/08/19 01:26:45;;;;;;;;;;;24.40;91.20;;;;;;5077071;28;20314;-71
2023/08/19 01:29:11;;;;;;;;;;;24.40;91.20;;;;;;5075901;28;20308;-70
2023/08/19 01:31:37;;;;;;;;;;;24.40;91.20;;;;;;5077170;28;19908;-70
2023/08/19 01:34:02;;;;;;;;;;;24.40;91.20;;;;;;5076863;28;20379;-71
2023/08/19 01:36:31;;;;;;;;;;;24.40;91.20;;;;;;5077030;28;19931;-71
2023/08/19 01:39:01;;;;;;;;;;;24.40;91.20;;;;;;5076690;28;19909;-71
2023/08/19 01:41:28;;;;;;;;;;;24.40;91.50;;;;;;5077030;28;19909;-71
2023/08/19 01:43:55;;;;;;;;;;;24.40;91.20;;;;;;5076950;28;19995;-71
2023/08/19 01:46:21;;;;;;;;;;;24.40;91.20;;;;;;5076980;28;19964;-71
2023/08/19 01:48:46;;;;;;;;;;;24.40;91.20;;;;;;5076605;28;19947;-71
2023/08/19 01:51:12;;;;;;;;;;;24.40;91.20;;;;;;5076507;28;19913;-71
2023/08/19 01:53:37;;;;;;;;;;;24.40;91.20;;;;;;5076459;28;20005;-71
2023/08/19 01:56:03;;;;;;;;;;;24.40;91.20;;;;;;5076399;28;19912;-70
2023/08/19 01:58:28;;;;;;;;;;;24.40;91.20;;;;;;5076403;28;20003;-71
2023/08/19 02:00:54;;;;;;;;;;;24.40;91.20;;;;;;5076658;28;19908;-71
2023/08/19 02:03:19;;;;;;;;;;;24.40;91.20;;;;;;5076593;28;19923;-71
2023/08/19 02:05:44;;;;;;;;;;;24.40;91.20;;;;;;5076226;28;19923;-71
2023/08/19 02:08:10;;;;;;;;;;;24.40;91.20;;;;;;5076502;28;19984;-72
2023/08/19 02:10:35;;;;;;;;;;;24.40;91.20;;;;;;5076224;28;19916;-71
2023/08/19 02:13:01;;;;;;;;;;;24.40;91.40;;;;;;5076065;28;20014;-72
2023/08/19 02:15:26;;;;;;;;;;;24.40;91.20;;;;;;5076094;28;19909;-71
2023/08/19 02:17:52;;;;;;;;;;;24.40;91.20;;;;;;5076362;28;20355;-72
2023/08/19 02:20:17;;;;;;;;;;;24.40;91.20;;;;;;5076293;28;19954;-72
2023/08/19 02:22:43;;;;;;;;;;;24.40;91.20;;;;;;5075981;28;19908;-71
2023/08/19 02:25:08;;;;;;;;;;;24.40;91.20;;;;;;5076120;28;19923;-72
2023/08/19 02:27:34;;;;;;;;;;;24.40;91.20;;;;;;5076112;28;19999;-72
2023/08/19 02:29:59;;;;;;;;;;;24.40;91.20;;;;;;5076145;28;19908;-72
2023/08/19 02:32:25;;;;;;;;;;;24.40;91.20;;;;;;5075769;28;19908;-71
2023/08/19 02:34:51;;;;;;;;;;;24.40;91.30;;;;;;5075763;28;19915;-71
2023/08/19 02:37:16;;;;;;;;;;;24.40;91.20;;;;;;5075708;28;19909;-72
2023/08/19 02:39:42;;;;;;;;;;;24.40;91.20;;;;;;5075955;28;19913;-71
2023/08/19 02:42:08;;;;;;;;;;;24.40;91.20;;;;;;5075923;28;19991;-71
2023/08/19 02:44:35;;;;;;;;;;;24.40;91.30;;;;;;5075622;28;20266;-71
2023/08/19 02:47:00;;;;;;;;;;;24.40;91.30;;;;;;5075886;28;19908;-70
2023/08/19 02:49:26;;;;;;;;;;;24.40;91.30;;;;;;5075725;28;19966;-71
2023/08/19 02:51:52;;;;;;;;;;;24.40;91.30;;;;;;5075657;28;20293;-72
2023/08/19 02:54:17;;;;;;;;;;;24.40;91.30;;;;;;5075630;28;20377;-71
2023/08/19 02:56:42;;;;;;;;;;;24.40;91.30;;;;;;5075400;28;19962;-72
2023/08/19 02:59:08;;;;;;;;;;;24.40;91.30;;;;;;5075390;28;19956;-71
2023/08/19 03:01:34;;;;;;;;;;;24.40;91.30;;;;;;5075358;28;19995;-71
2023/08/19 03:04:00;;;;;;;;;;;24.40;91.30;;;;;;5075512;28;19909;-71
2023/08/19 03:06:25;;;;;;;;;;;24.40;91.50;;;;;;5075167;28;19919;-72
2023/08/19 03:08:51;;;;;;;;;;;24.40;91.30;;;;;;5075146;28;19995;-70
2023/08/19 03:11:16;;;;;;;;;;;24.40;91.30;;;;;;5075335;28;19954;-72
2023/08/19 03:13:42;;;;;;;;;;;24.40;91.30;;;;;;5074957;28;20351;-71
2023/08/19 03:16:07;;;;;;;;;;;24.40;91.30;;;;;;5073822;28;20005;-71
2023/08/19 03:18:33;;;;;;;;;;;24.40;91.30;;;;;;5074968;28;19908;-70
2023/08/19 03:20:58;;;;;;;;;;;24.40;91.30;;;;;;5074952;28;19952;-71
2023/08/19 03:23:25;;;;;;;;;;;24.40;91.30;;;;;;5075138;28;19939;-72
2023/08/19 03:25:51;;;;;;;;;;;24.40;91.30;;;;;;5074586;28;19912;-71
2023/08/19 03:28:16;;;;;;;;;;;24.40;91.30;;;;;;5074779;28;19927;-72
2023/08/19 03:30:41;;;;;;;;;;;24.40;91.30;;;;;;5074681;28;20310;-71
2023/08/19 03:33:07;;;;;;;;;;;24.40;91.30;;;;;;5073509;28;19908;-71
2023/08/19 03:35:33;;;;;;;;;;;24.40;91.30;;;;;;5074579;28;19908;-72
2023/08/19 03:37:59;;;;;;;;;;;24.40;91.30;;;;;;5074569;28;19908;-71
2023/08/19 03:40:24;;;;;;;;;;;24.40;91.30;;;;;;5074555;28;19931;-72
2023/08/19 03:42:49;;;;;;;;;;;24.40;91.30;;;;;;5074024;28;19995;-72
2023/08/19 03:45:15;;;;;;;;;;;24.40;91.30;;;;;;5074503;28;19920;-71
2023/08/19 03:47:40;;;;;;;;;;;24.40;91.30;;;;;;5074352;28;19915;-72
2023/08/19 03:50:06;;;;;;;;;;;24.40;91.30;;;;;;5074969;28;19919;-71
2023/08/19 03:52:32;;;;;;;;;;;24.40;91.30;;;;;;5074561;28;19919;-70
2023/08/19 03:54:57;;;;;;;;;;;24.40;91.30;;;;;;5074347;28;19923;-71
2023/08/19 03:57:23;;;;;;;;;;;24.40;91.30;;;;;;5074448;28;19954;-71
2023/08/19 03:59:49;;;;;;;;;;;24.40;91.30;;;;;;5074475;28;19908;-71
2023/08/19 04:02:14;;;;;;;;;;;24.40;91.30;;;;;;5074492;28;19908;-72
2023/08/19 04:04:55;;;;;;;;;;;24.40;91.30;;;;;;5074042;28;19965;-71
2023/08/19 04:07:20;;;;;;;;;;;24.40;91.30;;;;;;5074186;28;19912;-71
2023/08/19 04:09:46;;;;;;;;;;;24.40;91.30;;;;;;5074355;28;19955;-71
2023/08/19 04:12:11;;;;;;;;;;;24.40;91.30;;;;;;5074389;28;20399;-72
2023/08/19 04:14:36;;;;;;;;;;;24.40;91.30;;;;;;5074592;28;19961;-71
2023/08/19 04:17:02;;;;;;;;;;;24.40;91.30;;;;;;5074033;28;19913;-71
2023/08/19 04:19:27;;;;;;;;;;;24.40;91.30;;;;;;5073987;28;19908;-72
2023/08/19 04:21:53;;;;;;;;;;;24.40;91.30;;;;;;5074206;28;19909;-71
2023/08/19 04:24:18;;;;;;;;;;;24.40;91.30;;;;;;5073872;28;19916;-71
2023/08/19 04:26:44;;;;;;;;;;;24.40;91.30;;;;;;5073830;28;19920;-71
2023/08/19 04:29:10;;;;;;;;;;;24.40;91.30;;;;;;5074075;28;20252;-71
2023/08/19 04:31:35;;;;;;;;;;;24.40;91.30;;;;;;5073818;28;20348;-70
2023/08/19 04:34:00;;;;;;;;;;;24.40;91.30;;;;;;5073747;28;19963;-71
2023/08/19 04:36:26;;;;;;;;;;;24.40;91.40;;;;;;5073979;28;19916;-71
2023/08/19 04:38:51;;;;;;;;;;;24.40;91.40;;;;;;5073786;28;19913;-71
2023/08/19 04:41:17;;;;;;;;;;;24.40;91.40;;;;;;5074065;28;19948;-71
2023/08/19 04:43:42;;;;;;;;;;;24.40;91.40;;;;;;5072712;28;19913;-71
2023/08/19 04:46:08;;;;;;;;;;;24.40;91.40;;;;;;5073501;28;20268;-71
2023/08/19 04:48:33;;;;;;;;;;;24.40;91.40;;;;;;5073880;28;19960;-72
2023/08/19 04:51:00;;;;;;;;;;;24.40;91.40;;;;;;5073629;28;19915;-71
2023/08/19 04:53:25;;;;;;;;;;;24.40;91.40;;;;;;5072552;28;19908;-71
2023/08/19 04:55:58;;;;;;;;;;;24.40;91.40;;;;;;5075643;28;20007;-71
2023/08/19 04:58:23;;;;;;;;;;;24.40;91.40;;;;;;5077672;28;19908;-71
2023/08/19 05:00:49;;;;;;;;;;;24.40;91.40;;;;;;5077555;28;20417;-71
2023/08/19 05:03:15;;;;;;;;;;;24.40;91.40;;;;;;5076560;28;19961;-71
2023/08/19 05:05:40;;;;;;;;;;;24.40;91.40;;;;;;5076212;28;19916;-71
2023/08/19 05:08:06;;;;;;;;;;;24.40;91.40;;;;;;5077666;28;19923;-71
2023/08/19 05:10:31;;;;;;;;;;;24.40;91.40;;;;;;5080849;28;19908;-71
2023/08/19 05:12:58;;;;;;;;;;;24.40;91.40;;;;;;5080198;28;19919;-71
2023/08/19 05:15:23;;;;;;;;;;;24.40;91.40;;;;;;5077221;28;19999;-72
2023/08/19 05:17:49;;;;;;;;;;;24.40;91.40;;;;;;5077092;28;20001;-73
2023/08/19 05:20:14;;;;;;;;;;;24.40;91.40;;;;;;5077255;28;19908;-71
2023/08/19 05:22:40;;;;;;;;;;;24.40;91.40;;;;;;5077402;28;19952;-71
2023/08/19 05:25:05;;;;;;;;;;;24.40;91.40;;;;;;5077205;28;19947;-71
2023/08/19 05:27:31;;;;;;;;;;;24.40;91.40;;;;;;5080284;28;19935;-71
2023/08/19 05:29:56;;;;;;;;;;;24.40;91.50;;;;;;5097656;28;19908;-72
2023/08/19 05:32:22;;;;;;;;;;;24.40;91.50;;;;;;5095128;28;20342;-68
2023/08/19 05:34:47;;;;;;;;;;;24.40;91.40;;;;;;5087970;28;19966;-71
2023/08/19 05:37:13;;;;;;;;;;;24.30;88.70;;;;;;5076709;28;20367;-72
2023/08/19 05:39:38;;;;;;;;;;;24.40;89.90;;;;;;5077489;28;19912;-72
2023/08/19 05:42:04;;;;;;;;;;;24.40;90.40;;;;;;5076923;28;19909;-71
2023/08/19 05:44:29;;;;;;;;;;;24.40;90.70;;;;;;5079740;28;20973;-71
2023/08/19 05:46:55;;;;;;;;;;;24.40;90.90;;;;;;5096639;28;19908;-71
2023/08/19 05:49:20;;;;;;;;;;;24.30;91.00;;;;;;5093061;28;20005;-71
2023/08/19 05:51:46;;;;;;;;;;;24.40;91.10;;;;;;5097053;28;20045;-72
2023/08/19 05:54:11;;;;;;;;;;;24.40;91.20;;;;;;5083303;28;20347;-71
2023/08/19 05:56:37;;;;;;;;;;;24.40;91.20;;;;;;5076725;28;20000;-72
2023/08/19 05:59:02;;;;;;;;;;;24.40;91.20;;;;;;5076775;28;19916;-71
2023/08/19 06:01:28;;;;;;;;;;;24.40;91.20;;;;;;5076809;28;19951;-71
2023/08/19 06:03:53;;;;;;;;;;;24.40;91.30;;;;;;5076300;28;19916;-67
2023/08/19 06:06:19;;;;;;;;;;;24.40;91.30;;;;;;5079218;28;20355;-71
2023/08/19 06:08:44;;;;;;;;;;;24.40;90.50;;;;;;5086245;28;20286;-73
2023/08/19 06:11:10;;;;;;;;;;;24.40;90.80;;;;;;5089425;28;20382;-72
2023/08/19 06:13:36;;;;;;;;;;;24.40;91.10;;;;;;5109139;28;19946;-70
2023/08/19 06:16:03;;;;;;;;;;;24.30;91.10;;;;;;5080623;28;19912;-71
2023/08/19 06:18:29;;;;;;;;;;;24.30;91.10;;;;;;5075121;28;19946;-72
2023/08/19 06:20:55;;;;;;;;;;;24.40;91.20;;;;;;5075216;28;20301;-72
2023/08/19 06:23:20;;;;;;;;;;;24.40;91.20;;;;;;5073995;28;20355;-72
2023/08/19 06:25:48;;;;;;;;;;;24.40;91.20;;;;;;5074063;28;19920;-72
2023/08/19 06:28:14;;;;;;;;;;;24.40;91.30;;;;;;5074801;28;20395;-72
2023/08/19 06:30:39;;;;;;;;;;;24.40;91.30;;;;;;5088288;28;19920;-72
2023/08/19 06:33:05;;;;;;;;;;;24.30;91.20;;;;;;5092654;28;19908;-72
2023/08/19 06:35:31;;;;;;;;;;;24.30;91.20;;;;;;5074922;28;19908;-72
2023/08/19 06:37:59;;;;;;;;;;;24.30;91.20;;;;;;5075018;28;19924;-72
2023/08/19 06:40:26;;;;;;;;;;;24.40;91.30;;;;;;5075673;28;20003;-72
2023/08/19 06:42:52;;;;;;;;;;;24.30;91.20;;;;;;5073799;28;19913;-72
2023/08/19 06:45:18;;;;;;;;;;;24.30;91.20;;;;;;5075345;28;19920;-71
2023/08/19 06:47:45;;;;;;;;;;;24.30;91.20;;;;;;5074765;28;19912;-72
2023/08/19 06:50:12;;;;;;;;;;;24.30;91.20;;;;;;5075809;28;19908;-72
2023/08/19 06:52:38;;;;;;;;;;;24.30;91.20;;;;;;5075344;28;19915;-71
2023/08/19 06:55:04;;;;;;;;;;;24.30;91.20;;;;;;5075592;28;19908;-71
2023/08/19 06:57:35;;;;;;;;;;;24.30;91.10;;;;;;5094268;28;20352;-72
2023/08/19 07:00:06;;;;;;;;;;;24.30;91.20;;;;;;5091982;28;19919;-72
2023/08/19 07:02:34;;;;;;;;;;;24.30;91.20;;;;;;5091657;28;20445;-72
2023/08/19 07:05:00;;;;;;;;;;;24.30;91.10;;;;;;5073958;28;20260;-70
2023/08/19 07:07:25;;;;;;;;;;;24.30;91.10;;;;;;5078274;28;19917;-70
2023/08/19 07:09:52;;;;;;;;;;;24.30;91.20;;;;;;5072830;28;19932;-66
2023/08/19 07:12:17;;;;;;;;;;;24.30;91.10;;;;;;5079532;28;19908;-69
2023/08/19 07:14:43;;;;;;;;;;;24.30;91.20;;;;;;5073151;28;19954;-62
2023/08/19 07:17:09;;;;;;;;;;;24.30;91.20;;;;;;5093473;28;19912;-68
2023/08/19 07:19:37;;;;;;;;;;;24.30;91.20;;;;;;5091461;28;19916;-70
2023/08/19 07:22:02;;;;;;;;;;;24.30;91.20;;;;;;5094844;28;20014;-70
2023/08/19 07:24:28;;;;;;;;;;;24.30;91.20;;;;;;5094873;28;20003;-70
2023/08/19 07:26:54;;;;;;;;;;;24.30;91.20;;;;;;5095670;28;20354;-71
2023/08/19 07:29:19;;;;;;;;;;;24.30;91.20;;;;;;5095040;28;20048;-71
2023/08/19 07:31:46;;;;;;;;;;;24.30;91.20;;;;;;5095029;28;20343;-70
2023/08/19 07:34:12;;;;;;;;;;;24.30;91.20;;;;;;5094521;28;19908;-70
2023/08/19 07:36:37;;;;;;;;;;;24.30;91.20;;;;;;5094626;28;19915;-71
2023/08/19 07:39:04;;;;;;;;;;;24.30;91.20;;;;;;5094953;28;19912;-71
2023/08/19 07:41:29;;;;;;;;;;;24.20;91.20;;;;;;5094533;28;20283;-71
2023/08/19 07:43:55;;;;;;;;;;;24.30;91.20;;;;;;5094556;28;19908;-71
2023/08/19 07:46:20;;;;;;;;;;;24.30;91.20;;;;;;5094674;28;19927;-70
2023/08/19 07:48:46;;;;;;;;;;;24.30;91.20;;;;;;5094596;28;19908;-70
2023/08/19 07:51:12;;;;;;;;;;;24.30;91.20;;;;;;5094779;28;19908;-70
2023/08/19 07:53:37;;;;;;;;;;;24.30;91.20;;;;;;5094469;28;20259;-70
2023/08/19 07:56:04;;;;;;;;;;;24.30;91.20;;;;;;5094929;28;19912;-70
2023/08/19 07:58:29;;;;;;;;;;;24.30;91.20;;;;;;5094618;28;19908;-70
2023/08/19 08:00:54;;;;;;;;;;;24.30;91.20;;;;;;5094334;28;19908;-70
2023/08/19 08:03:20;;;;;;;;;;;24.20;91.20;;;;;;5094627;28;19908;-70
2023/08/19 08:05:45;;;;;;;;;;;24.30;91.20;;;;;;5094102;28;19912;-70
2023/08/19 08:08:11;;;;;;;;;;;24.30;91.20;;;;;;5094370;28;19912;-70
2023/08/19 08:10:36;;;;;;;;;;;24.30;91.20;;;;;;5094269;28;19908;-67
2023/08/19 08:13:02;;;;;;;;;;;24.30;91.20;;;;;;5093418;28;19912;-70
2023/08/19 08:15:27;;;;;;;;;;;24.30;91.10;;;;;;5093971;28;19943;-70
2023/08/19 08:17:53;;;;;;;;;;;24.30;91.10;;;;;;5094277;28;19908;-71
2023/08/19 08:20:18;;;;;;;;;;;24.20;91.00;;;;;;5093868;28;20003;-70
2023/08/19 08:22:44;;;;;;;;;;;24.30;91.00;;;;;;5094068;28;19908;-71
2023/08/19 08:25:10;;;;;;;;;;;24.30;91.10;;;;;;5092842;28;19947;-70
2023/08/19 08:27:35;;;;;;;;;;;24.30;91.10;;;;;;5094180;28;20369;-71
2023/08/19 08:30:01;;;;;;;;;;;24.20;91.00;;;;;;5094021;28;19915;-72
2023/08/19 08:32:26;;;;;;;;;;;24.30;91.10;;;;;;5094356;28;20010;-71
2023/08/19 08:34:52;;;;;;;;;;;24.20;91.10;;;;;;5085329;28;20030;-72
2023/08/19 08:37:18;;;;;;;;;;;24.30;91.10;;;;;;5094304;28;19912;-71
2023/08/19 08:39:44;;;;;;;;;;;24.20;91.20;;;;;;5071973;28;20321;-69
2023/08/19 08:42:10;;;;;;;;;;;24.30;91.20;;;;;;5088435;28;19919;-68
2023/08/19 08:44:37;;;;;;;;;;;24.30;90.90;;;;;;5093990;28;19959;-69
2023/08/19 08:47:02;;;;;;;;;;;24.20;90.60;;;;;;5079884;28;19924;-70
2023/08/19 08:49:28;;;;;;;;;;;24.20;90.50;;;;;;5073500;28;19912;-71
2023/08/19 08:51:54;;;;;;;;;;;24.20;90.40;;;;;;5073496;28;20306;-70
2023/08/19 08:54:21;;;;;;;;;;;24.20;90.40;;;;;;5072476;28;20282;-71
2023/08/19 08:56:47;;;;;;;;;;;24.20;90.50;;;;;;5077582;28;19912;-71
2023/08/19 08:59:12;;;;;;;;;;;24.20;90.90;;;;;;5073655;28;20314;-71
2023/08/19 09:01:39;;;;;;;;;;;24.20;91.00;;;;;;5083549;28;20347;-69
2023/08/19 09:04:07;;;;;;;;;;;24.30;91.00;;;;;;5075892;28;19915;-71
2023/08/19 09:06:32;;;;;;;;;;;24.20;91.00;;;;;;5077894;28;19973;-71
2023/08/19 09:09:01;;;;;;;;;;;24.20;90.90;;;;;;5084990;28;19912;-72
2023/08/19 09:11:27;;;;;;;;;;;24.20;90.90;;;;;;5073583;28;19908;-72
2023/08/19 09:14:09;;;;;;;;;;;24.20;91.00;;;;;;5073620;28;20263;-71
2023/08/19 09:16:35;;;;;;;;;;;24.30;91.00;;;;;;5073470;28;19909;-71
2023/08/19 09:19:00;;;;;;;;;;;24.20;91.00;;;;;;5075995;28;19913;-70
2023/08/19 09:21:26;;;;;;;;;;;24.20;91.00;;;;;;5093771;28;20358;-70
2023/08/19 09:23:51;;;;;;;;;;;24.20;91.10;;;;;;5082324;28;19912;-70
2023/08/19 09:26:17;;;;;;;;;;;24.20;91.10;;;;;;5075899;28;19917;-70
2023/08/19 09:28:43;;;;;;;;;;;24.20;91.10;;;;;;5073182;28;20464;-70
2023/08/19 09:31:16;;;;;;;;;;;24.30;91.20;;;;;;5075161;28;20056;-68
2023/08/19 09:33:42;;;;;;;;;;;24.20;91.10;;;;;;5091373;28;19908;-66
2023/08/19 09:36:08;;;;;;;;;;;24.20;91.10;;;;;;5073079;28;20277;-68
2023/08/19 09:38:33;;;;;;;;;;;24.20;91.10;;;;;;5077021;28;19913;-65
2023/08/19 09:41:07;;;;;;;;;;;24.20;91.10;;;;;;5074283;28;19955;-74
2023/08/19 09:43:33;;;;;;;;;;;24.20;91.00;;;;;;5075781;28;19924;-66
2023/08/19 09:45:59;;;;;;;;;;;24.20;91.20;;;;;;5076668;28;19921;-62
2023/08/19 09:48:25;;;;;;;;;;;24.20;91.20;;;;;;5075010;28;19913;-66
2023/08/19 09:50:50;;;;;;;;;;;24.20;91.20;;;;;;5075610;28;19913;-63
2023/08/19 09:53:16;;;;;;;;;;;24.20;91.20;;;;;;5076885;28;19954;-63
2023/08/19 09:55:45;;;;;;;;;;;24.20;91.30;;;;;;5076683;28;19915;-59
2023/08/19 09:58:11;;;;;;;;;;;24.20;91.30;;;;;;5080277;28;19913;-61
2023/08/19 10:00:36;;;;;;;;;;;24.20;91.30;;;;;;5075164;28;19912;-60
2023/08/19 10:03:02;;;;;;;;;;;24.20;91.20;;;;;;5076303;28;19919;-61
2023/08/19 10:05:31;;;;;;;;;;;24.20;91.20;;;;;;5076415;28;19913;-65
2023/08/19 10:08:03;;;;;;;;;;;24.30;91.20;;;;;;5076047;28;19919;-65
2023/08/19 10:10:31;;;;;;;;;;;24.30;91.20;;;;;;5076347;28;19970;-63
2023/08/19 10:12:57;;;;;;;;;;;24.30;91.20;;;;;;5076284;28;19916;-71
2023/08/19 10:15:25;;;;;;;;;;;24.30;91.20;;;;;;5075973;28;20275;-71
2023/08/19 10:17:52;;;;;;;;;;;24.20;91.10;;;;;;5076519;28;19908;-69
2023/08/19 10:20:20;;;;;;;;;;;24.30;91.20;;;;;;5075979;28;20344;-64
2023/08/19 10:22:48;;;;;;;;;;;24.20;91.10;;;;;;5076077;28;19958;-62
2023/08/19 10:25:14;;;;;;;;;;;24.20;91.10;;;;;;5076161;28;19978;-62
2023/08/19 10:27:41;;;;;;;;;;;24.30;91.00;;;;;;5075793;28;19912;-61
2023/08/19 10:30:28;;;;;;;;;;;24.20;90.80;;;;;;5095468;28;19919;-67
2023/08/19 10:32:53;;;;;;;;;;;24.30;90.90;;;;;;5091027;28;19960;-63
2023/08/19 10:35:18;;;;;;;;;;;24.20;90.80;;;;;;5095992;28;19915;-63
2023/08/19 10:37:50;;;;;;;;;;;24.20;90.90;;;;;;5095825;28;20441;-63
2023/08/19 10:40:24;;;;;;;;;;;24.20;90.90;;;;;;5094771;28;19915;-63
2023/08/19 10:42:54;;;;;;;;;;;24.20;90.90;;;;;;5080476;28;19919;-65
2023/08/19 10:45:19;;;;;;;;;;;24.20;90.80;;;;;;5073408;28;19920;-66
2023/08/19 10:47:45;;;;;;;;;;;24.20;90.70;;;;;;5085060;28;20389;-64
2023/08/19 10:50:11;;;;;;;;;;;24.30;90.70;;;;;;5079288;28;20416;-65
2023/08/19 10:52:56;;;;;;;;;;;24.20;90.70;;;;;;5095154;28;19908;-69
2023/08/19 10:55:21;;;;;;;;;;;24.20;90.70;;;;;;5096202;28;20373;-68
2023/08/19 10:57:47;;;;;;;;;;;24.20;90.70;;;;;;5095371;28;19908;-67
2023/08/19 11:00:13;;;;;;;;;;;24.30;90.80;;;;;;5094602;28;20008;-69
2023/08/19 11:02:38;;;;;;;;;;;24.30;90.80;;;;;;5084474;28;19908;-65
2023/08/19 11:05:04;;;;;;;;;;;24.30;90.80;;;;;;5075074;28;19916;-68
2023/08/19 11:07:29;;;;;;;;;;;24.30;90.90;;;;;;5077908;28;20339;-67
2023/08/19 11:09:55;;;;;;;;;;;24.30;90.90;;;;;;5094894;28;19965;-67
2023/08/19 11:12:21;;;;;;;;;;;24.30;90.90;;;;;;5095147;28;19961;-63
2023/08/19 11:14:47;;;;;;;;;;;24.30;91.00;;;;;;5095473;28;19908;-66
2023/08/19 11:17:13;;;;;;;;;;;24.30;91.00;;;;;;5095698;28;19916;-65
2023/08/19 11:19:38;;;;;;;;;;;24.30;91.00;;;;;;5095173;28;19960;-69
2023/08/19 11:22:04;;;;;;;;;;;24.30;91.00;;;;;;5075887;28;19912;-69
2023/08/19 11:24:32;;;;;;;;;;;24.30;91.10;;;;;;5075737;28;20035;-71
2023/08/19 11:26:58;;;;;;;;;;;24.30;91.10;;;;;;5083020;28;20012;-67
2023/08/19 11:29:24;;;;;;;;;;;24.30;91.20;;;;;;5094937;28;19908;-67
2023/08/19 11:31:49;;;;;;;;;;;24.30;91.20;;;;;;5095101;28;19965;-68
2023/08/19 11:34:15;;;;;;;;;;;24.30;91.20;;;;;;5094956;28;19909;-64
2023/08/19 11:36:42;;;;;;;;;;;24.30;91.30;;;;;;5094795;28;20270;-66
2023/08/19 11:39:08;;;;;;;;;;;24.30;91.30;;;;;;5085178;28;20027;-66
2023/08/19 11:41:34;;;;;;;;;;;24.30;91.30;;;;;;5078059;28;19947;-65
2023/08/19 11:44:03;;;;;;;;;;;24.30;91.30;;;;;;5094366;28;20007;-66
2023/08/19 11:46:32;;;;;;;;;;;24.30;91.30;;;;;;5095091;28;19926;-66
2023/08/19 11:49:07;;;;;;;;;;;24.30;91.30;;;;;;5094927;28;19915;-66
2023/08/19 11:51:35;;;;;;;;;;;24.30;91.40;;;;;;5094716;28;19919;-65
2023/08/19 11:54:03;;;;;;;;;;;24.20;91.60;;;;;;5094590;28;19908;-66
2023/08/19 11:56:28;;;;;;;;;;;24.30;91.40;;;;;;5094573;28;19908;-66
2023/08/19 11:58:54;;;;;;;;;;;24.30;91.40;;;;;;5087953;28;20370;-68
2023/08/19 12:01:20;;;;;;;;;;;24.30;91.40;;;;;;5074041;28;19908;-66
2023/08/19 12:03:48;;;;;;;;;;;24.30;91.50;;;;;;5092538;28;19919;-63
2023/08/19 12:06:14;;;;;;;;;;;24.30;91.50;;;;;;5094136;28;19912;-64
2023/08/19 12:08:41;;;;;;;;;;;24.30;91.60;;;;;;5093726;28;19912;-63
2023/08/19 12:11:07;;;;;;;;;;;24.30;91.70;;;;;;5083357;28;19920;-63
2023/08/19 12:13:32;;;;;;;;;;;24.30;91.80;;;;;;5073796;28;19944;-63
2023/08/19 12:15:58;;;;;;;;;;;24.30;91.80;;;;;;5074392;28;19955;-61
2023/08/19 12:18:23;;;;;;;;;;;24.30;91.80;;;;;;5074113;28;19908;-64
2023/08/19 12:20:50;;;;;;;;;;;24.30;91.80;;;;;;5074063;28;20339;-66
2023/08/19 12:23:15;;;;;;;;;;;24.30;91.80;;;;;;5106612;28;19909;-64
2023/08/19 12:25:47;;;;;;;;;;;24.30;91.90;;;;;;5087238;28;19916;-64
2023/08/19 12:28:12;;;;;;;;;;;24.30;91.90;;;;;;5094296;28;19917;-62
2023/08/19 12:30:38;;;;;;;;;;;24.30;91.90;;;;;;5093897;28;19915;-67
2023/08/19 12:33:03;;;;;;;;;;;24.30;91.90;;;;;;5086116;28;19908;-69
2023/08/19 12:35:29;;;;;;;;;;;24.30;91.90;;;;;;5077192;28;20375;-72
2023/08/19 12:37:56;;;;;;;;;;;24.30;91.90;;;;;;5093711;28;20351;-65
2023/08/19 12:40:21;;;;;;;;;;;24.30;91.90;;;;;;5074350;28;19909;-64
2023/08/19 12:42:47;;;;;;;;;;;24.30;91.90;;;;;;5073539;28;19908;-64
2023/08/19 12:45:12;;;;;;;;;;;24.30;91.90;;;;;;5073527;28;19924;-62
2023/08/19 12:47:38;;;;;;;;;;;24.30;91.90;;;;;;5075707;28;20015;-65
2023/08/19 12:50:04;;;;;;;;;;;24.30;91.90;;;;;;5086036;28;20355;-64
2023/08/19 12:52:30;;;;;;;;;;;24.30;92.00;;;;;;5073664;28;19909;-63
2023/08/19 12:54:55;;;;;;;;;;;24.30;92.00;;;;;;5073526;28;19966;-69
2023/08/19 12:57:21;;;;;;;;;;;24.30;92.00;;;;;;5073396;28;19909;-63
2023/08/19 12:59:46;;;;;;;;;;;24.40;92.00;;;;;;5073480;28;20268;-61
2023/08/19 13:02:12;;;;;;;;;;;24.40;92.00;;;;;;5073742;28;19923;-63
2023/08/19 13:04:37;;;;;;;;;;;24.40;92.00;;;;;;5078055;28;21818;-61
2023/08/19 13:07:03;;;;;;;;;;;24.40;92.00;;;;;;5084569;28;19970;-61
2023/08/19 13:09:28;;;;;;;;;;;24.40;92.00;;;;;;5073662;28;19909;-63
2023/08/19 13:11:54;;;;;;;;;;;24.40;92.00;;;;;;5090074;28;19915;-64
2023/08/19 13:14:19;;;;;;;;;;;24.40;92.00;;;;;;5093515;28;20290;-66
2023/08/19 13:16:45;;;;;;;;;;;24.40;92.00;;;;;;5084434;28;19996;-65
2023/08/19 13:19:10;;;;;;;;;;;24.40;92.00;;;;;;5076815;28;19912;-64
2023/08/19 13:21:36;;;;;;;;;;;24.40;92.00;;;;;;5077195;28;20315;-69
2023/08/19 13:24:01;;;;;;;;;;;24.40;92.00;;;;;;5076129;28;19909;-62
2023/08/19 13:26:27;;;;;;;;;;;24.40;92.30;;;;;;5076869;28;19913;-64
2023/08/19 13:28:52;;;;;;;;;;;24.40;92.10;;;;;;5077139;28;19923;-63
2023/08/19 13:31:18;;;;;;;;;;;24.40;92.10;;;;;;5077692;28;19908;-70
2023/08/19 13:33:43;;;;;;;;;;;24.40;92.10;;;;;;5077348;28;20298;-70
2023/08/19 13:36:09;;;;;;;;;;;24.40;92.10;;;;;;5077777;28;19908;-69
2023/08/19 13:38:34;;;;;;;;;;;24.40;92.10;;;;;;5077446;28;20282;-69
2023/08/19 13:41:00;;;;;;;;;;;24.40;92.10;;;;;;5084463;28;20015;-69
2023/08/19 13:43:25;;;;;;;;;;;24.40;92.10;;;;;;5097292;28;19915;-69
2023/08/19 13:45:51;;;;;;;;;;;24.40;92.10;;;;;;5097911;28;19920;-74
2023/08/19 13:48:16;;;;;;;;;;;24.40;92.10;;;;;;5096273;28;19912;-67
2023/08/19 13:50:43;;;;;;;;;;;24.40;92.10;;;;;;5097545;28;19963;-68
2023/08/19 13:53:08;;;;;;;;;;;24.40;92.10;;;;;;5096757;28;19908;-68
2023/08/19 13:55:34;;;;;;;;;;;24.40;92.10;;;;;;5096600;28;19976;-67
2023/08/19 13:57:59;;;;;;;;;;;24.40;92.10;;;;;;5089422;28;19908;-67
2023/08/19 14:00:25;;;;;;;;;;;24.40;92.00;;;;;;5076890;28;19912;-70
2023/08/19 14:02:50;;;;;;;;;;;24.40;91.80;;;;;;5075168;28;19913;-68
2023/08/19 14:05:16;;;;;;;;;;;24.40;91.70;;;;;;5076444;28;19966;-68
2023/08/19 14:07:41;;;;;;;;;;;24.40;91.60;;;;;;5076914;28;19909;-69
2023/08/19 14:10:07;;;;;;;;;;;24.40;91.50;;;;;;5075823;28;19962;-69